Troy, Montana
Current Conditions -  °F | °C
As of 12:35 AM on Wednesday 26 Nov 2014 (Local Time) from K65S Reporting Station
Light Snow Light Snow  
Wind Chill: 32°   Ceiling: 400
Heat Index: 32°   Visibility: 1mi
Dew Point: 32°   Wind: 0mph
Humidity: 100%   Direction: NA
Pressure: 30.18"   Gusts: NA
Location:  48.46°N, 115.89°W
Report Text: K65S 260735Z AUTO 00000KT 1SM -SN OVC004 00/00 A3018 RMK AO2 P0003
Loading
Personal Weather Stations






























Interactive Weather Map New forecast layout! Learn more

10-Day Weather Forecast

Advertisements
Track Severe Weather on mobile